Tullamore, Ireland
Current Conditions -  °F | °C
As of 7:00 AM on Sunday 26 Oct 2014 (Local Time) from EIME Reporting Station
Drizzle Drizzle  
Wind Chill: 52°   Ceiling: 1800
Heat Index: 52°   Visibility: 6mi
Dew Point: 50°   Wind: 18mph
Humidity: 94%   Direction: 220°SW
Pressure: 29.85"   Gusts: 31mph
Location:  53.28°N, 7.49°W
Report Text: EIME 260700Z 22016G27KT 9999 -DZ FEW013 BKN018 BKN040 11/10 Q1011
Loading
Personal Weather Stations






























Interactive Weather Map
Tropical Storm Tracking
New forecast layout! Learn more

10-Day Weather Forecast

Advertisements
Track Severe Weather on mobile